createdAt,value
2023-01-01T00:01:25.278Z,100814.69
2023-01-01T00:03:54.026Z,100798.16
2023-01-01T00:06:21.070Z,100790.16
2023-01-01T00:08:48.530Z,100806.13
2023-01-01T00:11:15.021Z,100822.09
2023-01-01T00:13:44.309Z,100799.50
2023-01-01T00:16:13.392Z,100832.56
2023-01-01T00:18:40.575Z,100816.88
2023-01-01T00:21:13.283Z,100832.03
2023-01-01T00:23:39.924Z,100817.72
2023-01-01T00:26:15.300Z,100814.38
2023-01-01T00:28:42.244Z,100806.13
2023-01-01T00:31:10.328Z,100810.53
2023-01-01T00:33:36.889Z,100811.09
2023-01-01T00:36:08.276Z,100808.88
2023-01-01T00:38:35.113Z,100807.78
2023-01-01T00:41:02.073Z,100797.84
2023-01-01T00:43:28.641Z,100801.16
2023-01-01T00:45:55.303Z,100813.84
2023-01-01T00:48:22.446Z,100848.56
2023-01-01T00:50:50.041Z,100804.19
2023-01-01T00:53:16.831Z,100801.16
2023-01-01T00:55:44.043Z,100814.34
2023-01-01T00:58:11.184Z,100818.25
2023-01-01T01:00:38.530Z,100833.97
2023-01-01T01:03:05.142Z,100825.97
2023-01-01T01:05:33.103Z,100833.69
2023-01-01T01:08:00.014Z,100832.03
2023-01-01T01:10:26.576Z,100825.41
2023-01-01T01:12:53.270Z,100826.50
2023-01-01T01:15:19.890Z,100835.31
2023-01-01T01:17:46.523Z,100836.13
2023-01-01T01:20:13.278Z,100825.94
2023-01-01T01:22:40.189Z,100822.91
2023-01-01T01:25:07.317Z,100817.69
2023-01-01T01:27:33.780Z,100816.03
2023-01-01T01:30:00.322Z,100824.56
2023-01-01T01:32:27.015Z,100836.16
2023-01-01T01:34:53.551Z,100847.75
2023-01-01T01:37:20.196Z,100843.31
2023-01-01T01:39:51.705Z,100843.63
2023-01-01T01:42:20.350Z,100846.06
2023-01-01T01:44:49.422Z,100847.19
2023-01-01T01:47:21.290Z,100844.97
2023-01-01T01:49:49.670Z,100842.53
2023-01-01T01:52:16.499Z,100846.91
2023-01-01T01:54:43.077Z,100843.88
2023-01-01T01:57:12.796Z,100846.34
2023-01-01T01:59:43.996Z,100853.50
2023-01-01T02:02:19.733Z,100864.25
2023-01-01T02:04:47.177Z,100881.06
2023-01-01T02:07:14.915Z,100864.28
2023-01-01T02:09:42.210Z,100882.16
2023-01-01T02:12:08.792Z,100890.41
2023-01-01T02:14:35.335Z,100880.22
2023-01-01T02:17:10.601Z,100880.22
2023-01-01T02:20:09.589Z,100899.50
2023-01-01T02:22:35.994Z,100876.09
2023-01-01T02:25:11.469Z,100890.41
2023-01-01T02:27:59.035Z,100871.97
2023-01-01T02:30:29.219Z,100878.28
2023-01-01T02:33:09.092Z,100877.72
2023-01-01T02:35:42.453Z,100871.66
2023-01-01T02:38:23.945Z,100883.22
2023-01-01T02:40:55.941Z,100882.69
2023-01-01T02:43:24.968Z,100877.72
2023-01-01T02:45:53.941Z,100884.31
2023-01-01T02:48:42.046Z,100881.56
2023-01-01T02:51:14.457Z,100884.88
2023-01-01T02:54:19.599Z,100897.56
2023-01-01T02:56:54.449Z,100892.84
2023-01-01T02:59:59.571Z,100904.69
2023-01-01T03:02:43.873Z,100893.13
2023-01-01T03:05:23.713Z,100901.94
2023-01-01T03:08:15.811Z,100909.06
2023-01-01T03:10:45.323Z,100911.00
2023-01-01T03:13:27.649Z,100904.38
2023-01-01T03:16:21.794Z,100896.69
2023-01-01T03:19:10.504Z,100917.59
2023-01-01T03:22:05.014Z,100906.84
2023-01-01T03:24:39.369Z,100925.84
2023-01-01T03:27:14.530Z,100906.06
2023-01-01T03:29:43.445Z,100910.97
2023-01-01T03:32:16.481Z,100919.78
2023-01-01T03:34:49.526Z,100926.13
2023-01-01T03:37:22.401Z,100920.03
2023-01-01T03:39:52.453Z,100915.63
2023-01-01T03:42:36.318Z,100926.38
2023-01-01T03:45:10.829Z,100925.00
2023-01-01T03:47:37.582Z,100937.13
2023-01-01T03:50:05.926Z,100936.88
2023-01-01T03:52:51.256Z,100947.88
2023-01-01T03:55:47.864Z,100954.22
2023-01-01T03:58:35.769Z,100950.88
2023-01-01T04:01:32.284Z,100967.41
2023-01-01T04:04:01.350Z,100956.94
2023-01-01T04:06:28.247Z,100949.78
2023-01-01T04:08:58.998Z,100961.91
2023-01-01T04:11:47.407Z,100952.25
2023-01-01T04:14:30.405Z,100951.13
2023-01-01T04:16:57.723Z,100944.53
2023-01-01T04:19:25.249Z,100970.66
2023-01-01T04:21:52.041Z,100974.25
2023-01-01T04:24:18.656Z,100968.47
2023-01-01T04:26:45.180Z,100982.22
2023-01-01T04:29:12.769Z,100982.75
2023-01-01T04:31:39.337Z,100960.22
2023-01-01T04:34:05.910Z,100963.50
2023-01-01T04:36:33.138Z,100973.97
2023-01-01T04:38:59.756Z,100967.06
2023-01-01T04:41:26.246Z,100975.84
2023-01-01T04:43:52.774Z,100981.34
2023-01-01T04:46:20.481Z,100995.38
2023-01-01T04:48:47.149Z,100992.63
2023-01-01T04:51:15.324Z,100974.47
2023-01-01T04:53:42.129Z,100986.59
2023-01-01T04:56:11.840Z,101003.38
2023-01-01T04:58:40.035Z,100999.78
2023-01-01T05:01:07.626Z,100987.94
2023-01-01T05:03:34.289Z,101000.88
2023-01-01T05:06:08.595Z,101021.25
2023-01-01T05:08:37.492Z,101019.63
2023-01-01T05:11:06.255Z,101030.03
2023-01-01T05:13:35.835Z,101030.03
2023-01-01T05:16:04.092Z,101028.66
2023-01-01T05:18:30.857Z,101024.25
2023-01-01T05:21:05.548Z,101026.44
2023-01-01T05:23:32.628Z,101043.75
2023-01-01T05:25:59.159Z,101039.94
2023-01-01T05:28:25.939Z,101066.88
2023-01-01T05:30:53.643Z,101069.63
2023-01-01T05:33:20.377Z,101054.75
2023-01-01T05:35:53.405Z,101069.63
2023-01-01T05:38:19.956Z,101071.22
2023-01-01T05:40:46.510Z,101075.66
2023-01-01T05:43:12.992Z,101075.31
2023-01-01T05:45:39.602Z,101071.19
2023-01-01T05:48:07.196Z,101089.59
2023-01-01T05:50:33.684Z,101082.13
2023-01-01T05:53:01.234Z,101095.28
2023-01-01T05:55:28.539Z,101096.34
2023-01-01T05:57:55.097Z,101101.28
2023-01-01T06:00:21.588Z,101104.56
2023-01-01T06:02:49.927Z,101113.06
2023-01-01T06:05:16.771Z,101123.75
2023-01-01T06:07:48.123Z,101131.44
2023-01-01T06:10:15.234Z,101126.72
2023-01-01T06:12:41.840Z,101140.16
2023-01-01T06:15:08.774Z,101150.00
2023-01-01T06:17:35.311Z,101153.00
2023-01-01T06:20:01.852Z,101152.69
2023-01-01T06:22:28.369Z,101167.50
2023-01-01T06:24:55.013Z,101180.28
2023-01-01T06:27:21.542Z,101207.31
2023-01-01T06:29:48.009Z,101202.13
2023-01-01T06:32:14.516Z,101224.06
2023-01-01T06:34:40.971Z,101202.22
2023-01-01T06:37:07.449Z,101181.75
2023-01-01T06:39:33.970Z,101218.25
2023-01-01T06:42:00.462Z,101204.13
2023-01-01T06:44:26.926Z,101206.03
2023-01-01T06:46:53.397Z,101219.28
2023-01-01T06:49:19.902Z,101224.69
2023-01-01T06:51:46.538Z,101215.38
2023-01-01T06:54:13.108Z,101225.25
2023-01-01T06:56:39.935Z,101229.16
2023-01-01T06:59:06.523Z,101235.75
2023-01-01T07:01:35.963Z,101232.72
2023-01-01T07:04:05.303Z,101246.72
2023-01-01T07:06:32.762Z,101233.56
2023-01-01T07:08:59.375Z,101231.41
2023-01-01T07:11:26.809Z,101231.09
2023-01-01T07:13:54.063Z,101260.78
2023-01-01T07:16:21.677Z,101263.19
2023-01-01T07:18:50.387Z,101258.16
2023-01-01T07:21:32.659Z,101259.59
2023-01-01T07:24:01.441Z,101260.44
2023-01-01T07:26:29.654Z,101269.25
2023-01-01T07:29:02.749Z,101271.97
2023-01-01T07:31:32.771Z,101266.16
2023-01-01T07:33:59.342Z,101272.47
2023-01-01T07:36:25.887Z,101279.53
2023-01-01T07:38:52.349Z,101281.72
2023-01-01T07:41:18.813Z,101290.94
2023-01-01T07:43:45.351Z,101292.59
2023-01-01T07:46:13.974Z,101290.25
2023-01-01T07:48:40.615Z,101298.81
2023-01-01T07:51:07.173Z,101307.28
2023-01-01T07:53:33.919Z,101312.09
2023-01-01T07:56:00.517Z,101325.47
2023-01-01T07:58:27.119Z,101346.50
2023-01-01T08:00:53.768Z,101354.38
2023-01-01T08:03:20.387Z,101354.28
2023-01-01T08:05:48.463Z,101360.47
2023-01-01T08:08:15.119Z,101396.50
2023-01-01T08:10:41.659Z,101392.72
2023-01-01T08:13:09.363Z,101392.25
2023-01-01T08:15:36.159Z,101390.56
2023-01-01T08:18:05.330Z,101411.56
2023-01-01T08:20:33.088Z,101398.31
2023-01-01T08:23:06.946Z,101398.31
2023-01-01T08:25:34.359Z,101393.56
2023-01-01T08:28:00.917Z,101390.81
2023-01-01T08:30:27.615Z,101394.63
2023-01-01T08:32:54.086Z,101398.69
2023-01-01T08:35:20.564Z,101396.66
2023-01-01T08:37:47.095Z,101393.66
2023-01-01T08:40:14.031Z,101390.34
2023-01-01T08:42:41.471Z,101410.56
2023-01-01T08:45:08.633Z,101413.78
2023-01-01T08:47:35.316Z,101424.63
2023-01-01T08:50:02.151Z,101422.97
2023-01-01T08:52:28.733Z,101425.22
2023-01-01T08:54:55.314Z,101426.78
2023-01-01T08:57:21.861Z,101421.28
2023-01-01T08:59:48.402Z,101434.72
2023-01-01T09:02:15.127Z,101430.56
2023-01-01T09:04:41.777Z,101422.13
2023-01-01T09:07:08.451Z,101414.28
2023-01-01T09:09:35.051Z,101406.41
2023-01-01T09:12:08.283Z,101414.84
2023-01-01T09:14:35.502Z,101419.50
2023-01-01T09:17:02.115Z,101424.03
2023-01-01T09:19:28.877Z,101432.47
2023-01-01T09:21:55.722Z,101436.41
2023-01-01T09:24:22.577Z,101419.41
2023-01-01T09:26:49.070Z,101426.06
2023-01-01T09:29:20.626Z,101430.34
2023-01-01T09:31:50.195Z,101440.13
2023-01-01T09:34:18.082Z,101425.50
2023-01-01T09:36:45.573Z,101434.75
2023-01-01T09:39:15.294Z,101438.97
2023-01-01T09:41:41.757Z,101446.13
2023-01-01T09:44:35.432Z,101447.53
2023-01-01T09:47:05.650Z,101440.66
2023-01-01T09:49:41.287Z,101442.91
2023-01-01T09:52:13.559Z,101451.22
2023-01-01T09:54:45.073Z,101450.03
2023-01-01T09:57:19.898Z,101455.06
2023-01-01T09:59:46.832Z,101444.31
2023-01-01T10:02:35.190Z,101447.28
2023-01-01T10:05:24.773Z,101445.50
2023-01-01T10:08:05.262Z,101448.59
2023-01-01T10:10:41.349Z,101448.72
2023-01-01T10:13:32.335Z,101453.38
2023-01-01T10:16:04.217Z,101449.44
2023-01-01T10:18:35.885Z,101459.56
2023-01-01T10:21:23.549Z,101453.88
2023-01-01T10:24:02.189Z,101457.19
2023-01-01T10:26:31.275Z,101455.28
2023-01-01T10:29:09.274Z,101452.91
2023-01-01T10:31:40.066Z,101454.34
2023-01-01T10:34:25.958Z,101454.69
2023-01-01T10:36:56.895Z,101446.22
2023-01-01T10:39:24.801Z,101445.38
2023-01-01T10:41:51.568Z,101447.06
2023-01-01T10:44:32.453Z,101447.28
2023-01-01T10:47:04.924Z,101448.72
2023-01-01T10:49:31.399Z,101444.09
2023-01-01T10:51:59.264Z,101448.72
2023-01-01T10:54:38.090Z,101472.69
2023-01-01T10:57:16.792Z,101469.09
2023-01-01T10:59:49.785Z,101473.50
2023-01-01T11:02:25.865Z,101475.53
2023-01-01T11:05:12.930Z,101464.56
2023-01-01T11:07:43.793Z,101470.38
2023-01-01T11:10:31.520Z,101481.72
2023-01-01T11:13:06.374Z,101483.38
2023-01-01T11:15:41.642Z,101474.09
2023-01-01T11:18:14.817Z,101478.25
2023-01-01T11:20:43.578Z,101477.41
2023-01-01T11:23:40.915Z,101490.41
2023-01-01T11:26:26.915Z,101494.59
2023-01-01T11:29:17.502Z,101492.44
2023-01-01T11:31:47.891Z,101483.97
2023-01-01T11:34:26.466Z,101467.03
2023-01-01T11:37:05.735Z,101469.78
2023-01-01T11:39:36.000Z,101471.19
2023-01-01T11:42:04.175Z,101458.94
2023-01-01T11:44:38.159Z,101468.56
2023-01-01T11:47:07.112Z,101444.47
2023-01-01T11:49:34.547Z,101446.41
2023-01-01T11:52:21.089Z,101446.41
2023-01-01T11:54:48.171Z,101452.13
2023-01-01T11:57:21.988Z,101462.38
2023-01-01T12:00:02.015Z,101468.44
2023-01-01T12:02:40.140Z,101473.44
2023-01-01T12:05:35.036Z,101463.63
2023-01-01T12:08:07.585Z,101473.53
2023-01-01T12:10:56.925Z,101474.16
2023-01-01T12:13:29.841Z,101473.66
2023-01-01T12:16:12.344Z,101471.50
2023-01-01T12:19:02.461Z,101471.03
2023-01-01T12:21:29.544Z,101467.69
2023-01-01T12:23:56.104Z,101462.81
2023-01-01T12:26:38.469Z,101473.50
2023-01-01T12:29:46.849Z,101466.22
2023-01-01T12:32:40.838Z,101462.50
2023-01-01T12:35:17.995Z,101458.41
2023-01-01T12:38:15.589Z,101455.06
2023-01-01T12:40:51.593Z,101461.13
2023-01-01T12:43:40.768Z,101455.28
2023-01-01T12:46:43.015Z,101469.63
2023-01-01T12:49:29.634Z,101467.09
2023-01-01T12:52:02.668Z,101471.41
2023-01-01T12:54:53.299Z,101459.38
2023-01-01T12:57:31.904Z,101450.78
2023-01-01T13:00:02.756Z,101459.25
2023-01-01T13:02:33.311Z,101460.34
2023-01-01T13:05:13.497Z,101459.25
2023-01-01T13:07:46.742Z,101457.00
2023-01-01T13:10:30.360Z,101453.78
2023-01-01T13:12:57.143Z,101450.44
2023-01-01T13:15:39.031Z,101450.19
2023-01-01T13:18:06.645Z,101446.47
2023-01-01T13:20:39.035Z,101453.44
2023-01-01T13:23:05.632Z,101444.97
2023-01-01T13:25:32.132Z,101450.44
2023-01-01T13:28:03.465Z,101447.44
2023-01-01T13:30:39.542Z,101447.72
2023-01-01T13:33:29.504Z,101448.28
2023-01-01T13:36:11.897Z,101444.47
2023-01-01T13:38:55.636Z,101451.63
2023-01-01T13:41:25.073Z,101447.94
2023-01-01T13:43:53.085Z,101448.28
2023-01-01T13:46:35.695Z,101457.63
2023-01-01T13:49:17.110Z,101443.28
2023-01-01T13:52:22.671Z,101460.94
2023-01-01T13:55:19.918Z,101465.84
2023-01-01T13:58:15.235Z,101459.75
2023-01-01T14:00:59.970Z,101454.75
2023-01-01T14:03:28.451Z,101449.28
2023-01-01T14:05:59.749Z,101450.09
2023-01-01T14:08:35.564Z,101445.13
2023-01-01T14:11:03.877Z,101456.09
2023-01-01T14:13:39.046Z,101453.59
2023-01-01T14:16:13.486Z,101460.13
2023-01-01T14:18:53.397Z,101468.63
2023-01-01T14:21:26.725Z,101474.94
2023-01-01T14:23:57.497Z,101467.78
2023-01-01T14:26:28.999Z,101466.13
2023-01-01T14:28:57.125Z,101457.31
2023-01-01T14:31:28.815Z,101453.72
2023-01-01T14:33:55.316Z,101456.44
2023-01-01T14:36:30.196Z,101455.16
2023-01-01T14:39:00.626Z,101450.16
2023-01-01T14:41:33.009Z,101452.06
2023-01-01T14:44:15.478Z,101452.41
2023-01-01T14:46:46.206Z,101455.03
2023-01-01T14:49:22.030Z,101450.66
2023-01-01T14:51:58.081Z,101446.22
2023-01-01T14:54:36.846Z,101456.59
2023-01-01T14:57:08.974Z,101440.63
2023-01-01T14:59:37.815Z,101433.22
2023-01-01T15:02:21.508Z,101448.03
2023-01-01T15:04:48.807Z,101447.19
2023-01-01T15:07:27.556Z,101451.88
2023-01-01T15:09:56.913Z,101445.78
2023-01-01T15:12:24.083Z,101459.47
2023-01-01T15:14:52.559Z,101457.81
2023-01-01T15:17:21.947Z,101462.47
2023-01-01T15:20:07.046Z,101463.06
2023-01-01T15:22:35.754Z,101460.56
2023-01-01T15:25:03.111Z,101463.28
2023-01-01T15:27:32.046Z,101448.75
2023-01-01T15:29:59.260Z,101443.25
2023-01-01T15:32:28.962Z,101461.88
2023-01-01T15:34:58.360Z,101456.63
2023-01-01T15:37:27.623Z,101455.81
2023-01-01T15:39:57.958Z,101457.38
2023-01-01T15:42:33.198Z,101455.22
2023-01-01T15:45:29.102Z,101460.47
2023-01-01T15:48:16.788Z,101466.06
2023-01-01T15:51:01.403Z,101469.75
2023-01-01T15:53:40.295Z,101470.25
2023-01-01T15:56:12.467Z,101460.56
2023-01-01T15:58:53.945Z,101462.88
2023-01-01T16:01:24.267Z,101462.88
2023-01-01T16:03:54.951Z,101457.00
2023-01-01T16:06:22.133Z,101456.78
2023-01-01T16:08:48.667Z,101463.09
2023-01-01T16:11:15.403Z,101455.09
2023-01-01T16:13:42.129Z,101460.00
2023-01-01T16:16:29.785Z,101465.59
2023-01-01T16:18:57.589Z,101464.16
2023-01-01T16:21:27.340Z,101461.91
2023-01-01T16:23:54.865Z,101450.09
2023-01-01T16:26:22.342Z,101456.41
2023-01-01T16:28:49.169Z,101458.59
2023-01-01T16:31:19.473Z,101458.59
2023-01-01T16:33:52.253Z,101448.19
2023-01-01T16:36:18.746Z,101448.19
2023-01-01T16:38:45.289Z,101442.59
2023-01-01T16:41:16.488Z,101444.50
2023-01-01T16:43:44.381Z,101444.50
2023-01-01T16:46:13.468Z,101437.38
2023-01-01T16:48:40.918Z,101430.22
2023-01-01T16:51:18.060Z,101428.78
2023-01-01T16:53:44.943Z,101421.63
2023-01-01T16:56:12.620Z,101428.44
2023-01-01T16:59:02.329Z,101419.03
2023-01-01T17:01:26.809Z,101403.38
2023-01-01T17:03:53.477Z,101404.84
2023-01-01T17:06:20.080Z,101405.56
2023-01-01T17:08:46.665Z,101407.47
2023-01-01T17:11:16.662Z,101406.88
2023-01-01T17:13:45.193Z,101406.53
2023-01-01T17:16:14.702Z,101412.75
2023-01-01T17:21:36.280Z,101398.91
2023-01-01T17:24:02.782Z,101395.94
2023-01-01T17:26:29.411Z,101396.75
2023-01-01T17:29:00.611Z,101393.19
2023-01-01T17:31:28.956Z,101388.44
2023-01-01T17:33:56.094Z,101382.97
2023-01-01T17:36:23.109Z,101388.66
2023-01-01T17:38:49.701Z,101384.25
2023-01-01T17:41:17.443Z,101398.22
2023-01-01T17:43:46.102Z,101382.25
2023-01-01T17:46:15.161Z,101379.50
2023-01-01T17:48:42.477Z,101385.44
2023-01-01T17:51:09.393Z,101382.25
2023-01-01T17:53:38.675Z,101372.94
2023-01-01T17:56:09.930Z,101376.66
2023-01-01T17:58:36.407Z,101382.63
2023-01-01T18:01:27.091Z,101386.66
2023-01-01T18:03:56.617Z,101387.50
2023-01-01T18:06:23.837Z,101387.50
2023-01-01T18:09:01.740Z,101384.63
2023-01-01T18:11:30.188Z,101378.31
2023-01-01T18:14:01.730Z,101373.53
2023-01-01T18:16:30.653Z,101372.00
2023-01-01T18:19:00.968Z,101367.00
2023-01-01T18:21:27.772Z,101367.00
2023-01-01T18:23:56.298Z,101359.97
2023-01-01T18:26:25.149Z,101360.78
2023-01-01T18:28:53.067Z,101354.13
2023-01-01T18:31:20.005Z,101354.25
2023-01-01T18:33:47.486Z,101335.56
2023-01-01T18:36:16.641Z,101337.22
2023-01-01T18:39:11.178Z,101343.78
2023-01-01T18:41:53.140Z,101324.00
2023-01-01T18:44:21.035Z,101330.28
2023-01-01T18:46:56.294Z,101319.69
2023-01-01T18:49:25.216Z,101324.59
2023-01-01T18:51:56.779Z,101317.94
2023-01-01T18:54:24.337Z,101317.94
2023-01-01T18:57:07.655Z,101312.69
2023-01-01T18:59:36.745Z,101296.84
2023-01-01T19:02:33.710Z,101294.69
2023-01-01T19:05:17.220Z,101294.00
2023-01-01T19:07:49.852Z,101277.00
2023-01-01T19:10:16.473Z,101280.19
2023-01-01T19:12:43.389Z,101273.41
2023-01-01T19:15:19.080Z,101276.72
2023-01-01T19:17:46.281Z,101269.59
2023-01-01T19:20:19.444Z,101276.38
2023-01-01T19:22:47.614Z,101266.75
2023-01-01T19:25:37.005Z,101269.59
2023-01-01T19:28:25.839Z,101256.38
2023-01-01T19:30:52.343Z,101257.47
2023-01-01T19:33:18.892Z,101246.88
2023-01-01T19:35:45.451Z,101244.97
2023-01-01T19:38:11.955Z,101239.72
2023-01-01T19:40:38.424Z,101237.22
2023-01-01T19:43:06.709Z,101231.53
2023-01-01T19:45:33.921Z,101235.31
2023-01-01T19:48:00.520Z,101228.56
2023-01-01T19:50:27.020Z,101222.72
2023-01-01T19:52:53.529Z,101224.63
2023-01-01T19:55:20.108Z,101220.78
2023-01-01T19:57:46.708Z,101221.91
2023-01-01T20:00:13.701Z,101214.25
2023-01-01T20:02:48.377Z,101217.13
2023-01-01T20:05:15.718Z,101207.09
2023-01-01T20:07:42.350Z,101215.31
2023-01-01T20:10:09.471Z,101197.81
2023-01-01T20:12:35.995Z,101205.47
2023-01-01T20:15:02.562Z,101209.50
2023-01-01T20:17:30.600Z,101208.91
2023-01-01T20:19:58.319Z,101201.63
2023-01-01T20:22:25.025Z,101197.25
2023-01-01T20:24:51.573Z,101197.25
2023-01-01T20:27:18.450Z,101189.88
2023-01-01T20:29:45.104Z,101194.50
2023-01-01T20:32:13.113Z,101197.00
2023-01-01T20:34:40.282Z,101192.13
2023-01-01T20:37:25.516Z,101184.41
2023-01-01T20:39:52.355Z,101180.56
2023-01-01T20:42:19.143Z,101182.47
2023-01-01T20:44:45.736Z,101177.47
2023-01-01T20:47:13.312Z,101173.06
2023-01-01T20:49:41.026Z,101170.94
2023-01-01T20:52:07.549Z,101173.91
2023-01-01T20:54:34.097Z,101174.50
2023-01-01T20:57:00.679Z,101166.53
2023-01-01T20:59:36.780Z,101167.97
2023-01-01T21:02:06.355Z,101171.78
2023-01-01T21:04:38.078Z,101161.31
2023-01-01T21:07:06.133Z,101173.06
2023-01-01T21:09:32.677Z,101150.09
2023-01-01T21:12:00.849Z,101142.72
2023-01-01T21:14:27.952Z,101147.03
2023-01-01T21:16:54.518Z,101130.59
2023-01-01T21:19:26.695Z,101127.50
2023-01-01T21:21:56.887Z,101137.41
2023-01-01T21:24:35.041Z,101121.22
2023-01-01T21:27:07.467Z,101113.25
2023-01-01T21:29:35.308Z,101112.16
2023-01-01T21:32:16.985Z,101114.66
2023-01-01T21:34:45.056Z,101102.53
2023-01-01T21:37:44.664Z,101100.28
2023-01-01T21:40:35.887Z,101105.28
2023-01-01T21:43:02.308Z,101103.03
2023-01-01T21:45:33.187Z,101103.50
2023-01-01T21:48:12.523Z,101106.84
2023-01-01T21:50:44.161Z,101104.31
2023-01-01T21:53:16.268Z,101102.19
2023-01-01T21:55:53.307Z,101085.91
2023-01-01T21:59:01.704Z,101084.94
2023-01-01T22:01:36.671Z,101067.34
2023-01-01T22:04:08.964Z,101069.50
2023-01-01T22:06:39.016Z,101074.72
2023-01-01T22:09:24.654Z,101078.28
2023-01-01T22:11:56.785Z,101089.22
2023-01-01T22:14:27.216Z,101081.03
2023-01-01T22:16:58.248Z,101064.03
2023-01-01T22:19:33.577Z,101069.56
2023-01-01T22:22:00.122Z,101064.59
2023-01-01T22:24:34.853Z,101070.66
2023-01-01T22:27:31.466Z,101068.50
2023-01-01T22:30:19.081Z,101056.50
2023-01-01T22:32:59.689Z,101054.00
2023-01-01T22:35:29.228Z,101048.75
2023-01-01T22:37:56.857Z,101042.81
2023-01-01T22:40:32.769Z,101040.31
2023-01-01T22:43:05.851Z,101042.22
2023-01-01T22:45:32.920Z,101041.16
2023-01-01T22:48:02.002Z,101038.97
2023-01-01T22:50:30.212Z,101038.19
2023-01-01T22:52:57.552Z,101034.84
2023-01-01T22:55:24.889Z,101018.19
2023-01-01T22:57:51.546Z,101016.28
2023-01-01T23:00:19.089Z,101030.75
2023-01-01T23:02:46.127Z,101035.16
2023-01-01T23:05:12.783Z,101025.28
2023-01-01T23:07:42.205Z,101027.47
2023-01-01T23:10:12.112Z,101020.91
2023-01-01T23:12:38.662Z,101013.28
2023-01-01T23:15:23.888Z,101010.81
2023-01-01T23:17:50.397Z,101002.31
2023-01-01T23:20:17.490Z,100997.91
2023-01-01T23:22:46.732Z,101000.66
2023-01-01T23:25:16.662Z,101007.81
2023-01-01T23:27:44.516Z,100999.03
2023-01-01T23:30:11.673Z,101004.22
2023-01-01T23:32:38.810Z,100998.53
2023-01-01T23:35:05.679Z,100993.06
2023-01-01T23:37:32.396Z,100990.88
2023-01-01T23:39:58.947Z,100997.47
2023-01-01T23:42:25.447Z,100999.09
2023-01-01T23:44:52.005Z,100982.94
2023-01-01T23:47:18.590Z,100989.59
2023-01-01T23:49:45.150Z,100971.25
2023-01-01T23:52:11.703Z,100971.81
2023-01-01T23:54:38.998Z,100959.53
2023-01-01T23:57:05.524Z,100967.00
2023-01-01T23:59:32.081Z,100947.34
